createdAt,value
2018-08-11T00:00:27.267Z,16.50
2018-08-11T00:02:56.023Z,16.50
2018-08-11T00:05:24.507Z,16.50
2018-08-11T00:07:53.088Z,16.40
2018-08-11T00:10:21.593Z,16.30
2018-08-11T00:12:50.018Z,16.30
2018-08-11T00:15:19.506Z,16.30
2018-08-11T00:17:48.053Z,16.40
2018-08-11T00:20:19.562Z,16.30
2018-08-11T00:22:48.032Z,16.30
2018-08-11T00:25:17.130Z,16.40
2018-08-11T00:27:45.577Z,16.50
2018-08-11T00:30:16.289Z,16.30
2018-08-11T00:32:44.906Z,16.30
2018-08-11T00:35:14.460Z,16.20
2018-08-11T00:37:43.590Z,16.30
2018-08-11T00:40:15.875Z,16.30
2018-08-11T00:42:45.444Z,16.30
2018-08-11T00:45:14.907Z,16.30
2018-08-11T00:47:43.384Z,16.30
2018-08-11T00:50:15.539Z,16.30
2018-08-11T00:52:44.058Z,16.40
2018-08-11T00:55:13.702Z,16.30
2018-08-11T00:57:42.494Z,16.20
2018-08-11T01:00:13.740Z,16.10
2018-08-11T01:02:42.499Z,16.10
2018-08-11T01:05:13.421Z,16.10
2018-08-11T01:07:42.415Z,16.10
2018-08-11T01:10:11.702Z,16.10
2018-08-11T01:12:40.909Z,16.20
2018-08-11T01:15:12.614Z,16.20
2018-08-11T01:17:41.102Z,16.20
2018-08-11T01:20:11.062Z,16.10
2018-08-11T01:22:41.592Z,16.10
2018-08-11T01:25:10.947Z,16.20
2018-08-11T01:27:39.439Z,16.20
2018-08-11T01:30:14.459Z,16.30
2018-08-11T01:32:42.987Z,16.30
2018-08-11T01:35:11.839Z,16.40
2018-08-11T01:37:41.393Z,16.40
2018-08-11T01:40:11.391Z,16.40
2018-08-11T01:42:40.605Z,16.40
2018-08-11T01:45:09.981Z,16.40
2018-08-11T01:47:38.883Z,16.40
2018-08-11T01:50:08.539Z,16.50
2018-08-11T01:52:37.283Z,16.50
2018-08-11T01:55:06.251Z,16.40
2018-08-11T01:57:35.031Z,16.40
2018-08-11T02:00:03.829Z,16.40
2018-08-11T02:02:32.290Z,16.40
2018-08-11T02:05:00.690Z,16.40
2018-08-11T02:07:29.111Z,16.50
2018-08-11T02:09:57.659Z,16.40
2018-08-11T02:12:26.078Z,16.40
2018-08-11T02:14:54.521Z,16.40
2018-08-11T02:17:23.002Z,16.40
2018-08-11T02:19:51.457Z,16.40
2018-08-11T02:22:19.974Z,16.40
2018-08-11T02:24:48.791Z,16.40
2018-08-11T02:27:17.347Z,16.30
2018-08-11T02:29:45.858Z,16.30
2018-08-11T02:32:14.362Z,16.30
2018-08-11T02:34:42.903Z,16.20
2018-08-11T02:37:11.583Z,16.20
2018-08-11T02:39:40.102Z,16.20
2018-08-11T02:42:08.713Z,16.20
2018-08-11T02:44:37.184Z,16.20
2018-08-11T02:47:05.595Z,16.30
2018-08-11T02:49:34.072Z,16.30
2018-08-11T02:52:02.575Z,16.30
2018-08-11T02:54:31.021Z,16.30
2018-08-11T02:56:59.461Z,16.20
2018-08-11T02:59:27.926Z,16.30
2018-08-11T03:01:56.330Z,16.30
2018-08-11T03:04:24.736Z,16.40
2018-08-11T03:06:53.320Z,16.40
2018-08-11T03:09:21.858Z,16.40
2018-08-11T03:11:50.308Z,16.40
2018-08-11T03:14:18.904Z,16.30
2018-08-11T03:16:47.447Z,16.40
2018-08-11T03:19:15.876Z,16.40
2018-08-11T03:21:44.612Z,16.40
2018-08-11T03:24:13.035Z,16.50
2018-08-11T03:26:41.475Z,16.40
2018-08-11T03:29:09.912Z,16.40
2018-08-11T03:31:38.538Z,16.30
2018-08-11T03:34:07.107Z,16.30
2018-08-11T03:36:35.594Z,16.30
2018-08-11T03:39:05.806Z,16.20
2018-08-11T03:41:34.246Z,16.20
2018-08-11T03:44:02.677Z,16.20
2018-08-11T03:46:31.134Z,16.20
2018-08-11T03:48:59.749Z,16.20
2018-08-11T03:51:28.185Z,16.20
2018-08-11T03:53:56.714Z,16.10
2018-08-11T03:56:25.277Z,16.20
2018-08-11T03:58:53.691Z,16.20
2018-08-11T04:01:22.121Z,16.10
2018-08-11T04:03:50.578Z,16.10
2018-08-11T04:06:18.974Z,16.00
2018-08-11T04:08:47.464Z,16.00
2018-08-11T04:11:16.011Z,15.90
2018-08-11T04:13:44.535Z,16.00
2018-08-11T04:16:13.003Z,15.90
2018-08-11T04:18:41.506Z,15.90
2018-08-11T04:21:10.034Z,15.80
2018-08-11T04:23:38.454Z,15.80
2018-08-11T04:26:06.943Z,15.80
2018-08-11T04:28:35.387Z,15.70
2018-08-11T04:31:03.808Z,15.70
2018-08-11T04:33:32.275Z,15.70
2018-08-11T04:36:00.755Z,15.60
2018-08-11T04:38:29.155Z,15.70
2018-08-11T04:40:57.689Z,15.70
2018-08-11T04:43:26.172Z,15.70
2018-08-11T04:45:54.672Z,15.80
2018-08-11T04:48:23.153Z,15.80
2018-08-11T04:50:51.611Z,15.80
2018-08-11T04:53:20.031Z,15.90
2018-08-11T04:55:48.689Z,15.90
2018-08-11T04:58:17.098Z,16.00
2018-08-11T05:00:45.649Z,15.80
2018-08-11T05:03:14.265Z,15.80
2018-08-11T05:05:42.666Z,15.90
2018-08-11T05:08:11.172Z,15.90
2018-08-11T05:10:39.653Z,16.00
2018-08-11T05:13:08.157Z,16.10
2018-08-11T05:15:36.582Z,16.20
2018-08-11T05:18:05.556Z,16.30
2018-08-11T05:20:33.994Z,16.30
2018-08-11T05:23:02.412Z,16.30
2018-08-11T05:25:30.944Z,16.40
2018-08-11T05:27:59.395Z,16.40
2018-08-11T05:30:27.795Z,16.40
2018-08-11T05:32:56.259Z,16.40
2018-08-11T05:35:24.711Z,16.50
2018-08-11T05:37:53.151Z,16.60
2018-08-11T05:40:21.618Z,16.70
2018-08-11T05:42:50.043Z,16.70
2018-08-11T05:45:18.476Z,16.80
2018-08-11T05:47:46.984Z,16.90
2018-08-11T05:50:15.516Z,17.00
2018-08-11T05:52:44.050Z,17.10
2018-08-11T05:55:12.583Z,17.10
2018-08-11T05:57:41.210Z,17.30
2018-08-11T06:00:10.443Z,17.30
2018-08-11T06:02:39.117Z,17.40
2018-08-11T06:05:08.977Z,17.40
2018-08-11T06:07:37.519Z,17.50
2018-08-11T06:10:07.445Z,17.60
2018-08-11T06:12:36.405Z,17.60
2018-08-11T06:15:05.380Z,17.70
2018-08-11T06:17:33.857Z,17.70
2018-08-11T06:20:02.371Z,17.80
2018-08-11T06:22:30.816Z,17.90
2018-08-11T06:24:59.475Z,18.00
2018-08-11T06:27:27.952Z,18.10
2018-08-11T06:29:56.356Z,18.10
2018-08-11T06:32:24.840Z,18.20
2018-08-11T06:34:53.288Z,18.20
2018-08-11T06:37:21.724Z,18.30
2018-08-11T06:39:50.210Z,18.30
2018-08-11T06:42:18.761Z,18.20
2018-08-11T06:44:47.697Z,18.20
2018-08-11T06:47:16.202Z,18.30
2018-08-11T06:49:44.695Z,18.40
2018-08-11T06:52:13.194Z,18.50
2018-08-11T06:54:41.694Z,18.40
2018-08-11T06:57:10.421Z,18.50
2018-08-11T06:59:38.939Z,18.50
2018-08-11T07:02:07.651Z,18.60
2018-08-11T07:04:36.206Z,18.70
2018-08-11T07:07:04.992Z,18.80
2018-08-11T07:09:33.651Z,18.80
2018-08-11T07:12:02.087Z,18.80
2018-08-11T07:14:30.489Z,18.80
2018-08-11T07:16:59.103Z,18.90
2018-08-11T07:19:27.697Z,19.10
2018-08-11T07:21:56.126Z,19.10
2018-08-11T07:24:24.576Z,19.10
2018-08-11T07:26:53.042Z,19.20
2018-08-11T07:29:21.496Z,19.30
2018-08-11T07:31:50.356Z,19.40
2018-08-11T07:34:18.762Z,19.50
2018-08-11T07:36:47.454Z,19.60
2018-08-11T07:39:16.171Z,19.70
2018-08-11T07:41:44.822Z,19.70
2018-08-11T07:44:13.257Z,19.80
2018-08-11T07:46:41.864Z,19.80
2018-08-11T07:49:10.387Z,19.90
2018-08-11T07:51:38.848Z,19.90
2018-08-11T07:54:07.315Z,20.10
2018-08-11T07:56:35.721Z,20.30
2018-08-11T07:59:04.428Z,20.30
2018-08-11T08:01:33.106Z,20.30
2018-08-11T08:04:01.543Z,20.30
2018-08-11T08:06:29.967Z,20.30
2018-08-11T08:08:58.479Z,20.30
2018-08-11T08:11:26.906Z,20.40
2018-08-11T08:13:55.699Z,20.30
2018-08-11T08:16:24.166Z,20.40
2018-08-11T08:18:52.588Z,20.40
2018-08-11T08:21:21.154Z,20.50
2018-08-11T08:23:49.837Z,20.50
2018-08-11T08:26:18.504Z,20.40
2018-08-11T08:28:47.094Z,20.40
2018-08-11T08:31:15.922Z,20.40
2018-08-11T08:33:44.370Z,20.40
2018-08-11T08:36:12.979Z,20.40
2018-08-11T08:38:41.425Z,20.60
2018-08-11T08:41:10.096Z,20.60
2018-08-11T08:43:38.759Z,20.70
2018-08-11T08:46:07.220Z,20.70
2018-08-11T08:48:35.719Z,20.80
2018-08-11T08:51:04.320Z,20.90
2018-08-11T08:53:32.902Z,20.90
2018-08-11T08:56:01.391Z,21.00
2018-08-11T08:58:30.016Z,21.10
2018-08-11T09:00:58.548Z,21.10
2018-08-11T09:03:27.254Z,21.20
2018-08-11T09:05:55.672Z,21.20
2018-08-11T09:08:24.184Z,21.30
2018-08-11T09:10:52.877Z,21.40
2018-08-11T09:13:21.355Z,21.50
2018-08-11T09:15:49.771Z,21.60
2018-08-11T09:18:18.435Z,21.50
2018-08-11T09:20:46.834Z,21.60
2018-08-11T09:23:15.306Z,21.70
2018-08-11T09:25:43.948Z,21.70
2018-08-11T09:28:12.454Z,21.60
2018-08-11T09:30:41.122Z,21.60
2018-08-11T09:33:09.573Z,21.60
2018-08-11T09:35:37.984Z,21.70
2018-08-11T09:38:06.459Z,21.70
2018-08-11T09:40:35.028Z,21.60
2018-08-11T09:43:03.483Z,21.50
2018-08-11T09:45:32.002Z,21.40
2018-08-11T09:48:00.736Z,21.50
2018-08-11T09:50:29.310Z,21.80
2018-08-11T09:52:57.754Z,21.80
2018-08-11T09:55:26.450Z,21.90
2018-08-11T09:57:54.949Z,21.80
2018-08-11T10:00:28.918Z,21.80
2018-08-11T10:02:57.444Z,21.90
2018-08-11T10:05:25.916Z,22.00
2018-08-11T10:07:54.406Z,22.10
2018-08-11T10:10:22.868Z,22.10
2018-08-11T10:15:32.574Z,22.00
2018-08-11T10:18:01.019Z,21.90
2018-08-11T10:20:29.486Z,22.00
2018-08-11T10:22:57.940Z,22.00
2018-08-11T10:25:26.822Z,21.90
2018-08-11T10:27:55.386Z,21.90
2018-08-11T10:30:23.986Z,22.00
2018-08-11T10:32:52.385Z,22.20
2018-08-11T10:35:20.886Z,22.20
2018-08-11T10:37:49.322Z,22.30
2018-08-11T10:40:17.883Z,22.30
2018-08-11T10:42:46.598Z,22.20
2018-08-11T10:45:14.998Z,22.30
2018-08-11T10:47:43.594Z,22.40
2018-08-11T10:50:12.250Z,22.60
2018-08-11T10:52:40.664Z,22.70
2018-08-11T10:55:09.103Z,22.70
2018-08-11T10:57:37.889Z,22.80
2018-08-11T11:00:06.383Z,23.00
2018-08-11T11:02:34.965Z,23.30
2018-08-11T11:05:03.543Z,23.50
2018-08-11T11:07:32.068Z,23.40
2018-08-11T11:10:00.584Z,23.20
2018-08-11T11:12:29.065Z,23.10
2018-08-11T11:14:57.486Z,23.00
2018-08-11T11:17:25.982Z,22.80
2018-08-11T11:19:54.401Z,22.80
2018-08-11T11:22:22.784Z,22.70
2018-08-11T11:24:51.486Z,22.80
2018-08-11T11:27:19.954Z,23.00
2018-08-11T11:29:48.512Z,23.10
2018-08-11T11:32:16.969Z,23.20
2018-08-11T11:34:45.387Z,23.40
2018-08-11T11:37:13.834Z,23.60
2018-08-11T11:39:42.617Z,23.50
2018-08-11T11:42:11.050Z,23.40
2018-08-11T11:44:39.476Z,23.20
2018-08-11T11:47:07.918Z,23.00
2018-08-11T11:49:36.349Z,23.00
2018-08-11T11:52:04.759Z,23.00
2018-08-11T11:54:33.589Z,23.10
2018-08-11T11:57:02.247Z,23.20
2018-08-11T11:59:30.839Z,23.40
2018-08-11T12:01:59.462Z,23.50
2018-08-11T12:04:28.156Z,23.60
2018-08-11T12:06:56.598Z,23.90
2018-08-11T12:09:25.047Z,24.10
2018-08-11T12:11:53.498Z,24.30
2018-08-11T12:14:21.962Z,24.50
2018-08-11T12:16:50.492Z,24.70
2018-08-11T12:19:18.962Z,24.70
2018-08-11T12:21:47.551Z,24.90
2018-08-11T12:24:16.088Z,25.00
2018-08-11T12:26:44.539Z,25.00
2018-08-11T12:29:13.003Z,25.00
2018-08-11T12:31:41.407Z,25.10
2018-08-11T12:34:09.812Z,25.20
2018-08-11T12:36:38.284Z,25.50
2018-08-11T12:39:08.552Z,25.40
2018-08-11T12:41:36.962Z,25.50
2018-08-11T12:44:05.410Z,25.60
2018-08-11T12:46:33.844Z,25.50
2018-08-11T12:49:02.338Z,25.40
2018-08-11T12:51:30.739Z,25.10
2018-08-11T12:53:59.165Z,25.00
2018-08-11T12:56:27.579Z,25.00
2018-08-11T12:58:56.390Z,25.30
2018-08-11T13:01:24.824Z,25.60
2018-08-11T13:03:53.357Z,25.80
2018-08-11T13:06:21.758Z,25.90
2018-08-11T13:08:50.295Z,25.90
2018-08-11T13:11:18.735Z,25.90
2018-08-11T13:13:47.201Z,25.80
2018-08-11T13:16:15.654Z,25.50
2018-08-11T13:18:44.375Z,25.30
2018-08-11T13:21:12.799Z,25.20
2018-08-11T13:23:41.206Z,25.20
2018-08-11T13:26:09.646Z,25.40
2018-08-11T13:28:38.210Z,25.70
2018-08-11T13:31:06.911Z,25.50
2018-08-11T13:33:35.394Z,25.60
2018-08-11T13:36:03.992Z,25.90
2018-08-11T13:38:33.085Z,26.30
2018-08-11T13:41:01.739Z,26.50
2018-08-11T13:43:30.197Z,26.70
2018-08-11T13:45:59.281Z,26.70
2018-08-11T13:48:27.776Z,26.80
2018-08-11T13:50:56.878Z,27.00
2018-08-11T13:53:25.857Z,27.20
2018-08-11T13:55:54.927Z,27.10
2018-08-11T13:58:23.958Z,27.30
2018-08-11T14:00:52.935Z,27.50
2018-08-11T14:03:22.277Z,27.80
2018-08-11T14:05:50.746Z,27.70
2018-08-11T14:08:19.938Z,27.50
2018-08-11T14:10:49.009Z,26.90
2018-08-11T14:13:17.987Z,26.40
2018-08-11T14:15:46.958Z,26.40
2018-08-11T14:18:15.407Z,26.60
2018-08-11T14:20:43.935Z,26.70
2018-08-11T14:23:12.652Z,26.20
2018-08-11T14:25:41.120Z,26.30
2018-08-11T14:28:09.695Z,26.70
2018-08-11T14:30:38.694Z,27.20
2018-08-11T14:33:07.701Z,27.40
2018-08-11T14:35:36.688Z,27.80
2018-08-11T14:38:05.665Z,27.90
2018-08-11T14:40:34.696Z,28.10
2018-08-11T14:43:03.722Z,28.20
2018-08-11T14:45:32.775Z,28.50
2018-08-11T14:48:01.950Z,28.60
2018-08-11T14:50:31.083Z,28.60
2018-08-11T14:53:00.238Z,28.50
2018-08-11T14:55:29.273Z,28.40
2018-08-11T14:57:58.556Z,28.10
2018-08-11T15:00:27.607Z,28.00
2018-08-11T15:02:56.571Z,28.00
2018-08-11T15:05:25.621Z,28.00
2018-08-11T15:07:54.591Z,28.10
2018-08-11T15:10:23.570Z,28.00
2018-08-11T15:12:52.665Z,27.80
2018-08-11T15:15:21.630Z,27.70
2018-08-11T15:17:50.614Z,27.80
2018-08-11T15:20:19.639Z,28.40
2018-08-11T15:22:48.605Z,29.10
2018-08-11T15:25:17.569Z,29.70
2018-08-11T15:27:46.592Z,29.60
2018-08-11T15:30:15.589Z,29.00
2018-08-11T15:32:44.539Z,28.40
2018-08-11T15:35:13.525Z,27.90
2018-08-11T15:37:42.495Z,27.60
2018-08-11T15:40:11.481Z,27.30
2018-08-11T15:42:40.441Z,27.10
2018-08-11T15:45:09.436Z,26.90
2018-08-11T15:47:38.467Z,26.80
2018-08-11T15:50:07.647Z,26.70
2018-08-11T15:52:36.841Z,26.60
2018-08-11T15:55:06.135Z,26.40
2018-08-11T15:57:35.102Z,26.20
2018-08-11T16:00:05.002Z,25.90
2018-08-11T16:02:34.080Z,25.90
2018-08-11T16:05:03.055Z,25.90
2018-08-11T16:07:32.039Z,25.80
2018-08-11T16:10:00.462Z,25.50
2018-08-11T16:12:28.943Z,25.20
2018-08-11T16:14:57.402Z,25.00
2018-08-11T16:17:25.833Z,24.80
2018-08-11T16:19:54.293Z,24.70
2018-08-11T16:22:22.749Z,24.70
2018-08-11T16:24:51.160Z,24.90
2018-08-11T16:27:19.625Z,24.90
2018-08-11T16:29:48.057Z,24.70
2018-08-11T16:32:16.519Z,24.50
2018-08-11T16:34:44.969Z,24.50
2018-08-11T16:37:13.954Z,24.40
2018-08-11T16:39:42.340Z,24.30
2018-08-11T16:42:10.830Z,24.30
2018-08-11T16:44:39.324Z,24.40
2018-08-11T16:47:07.754Z,24.40
2018-08-11T16:49:36.219Z,24.40
2018-08-11T16:52:04.891Z,24.40
2018-08-11T16:54:33.305Z,24.30
2018-08-11T16:57:01.751Z,24.10
2018-08-11T16:59:30.230Z,24.10
2018-08-11T17:01:58.822Z,24.20
2018-08-11T17:04:27.228Z,24.10
2018-08-11T17:06:55.660Z,24.10
2018-08-11T17:09:24.064Z,24.10
2018-08-11T17:11:52.500Z,24.20
2018-08-11T17:14:20.977Z,24.10
2018-08-11T17:16:49.421Z,24.10
2018-08-11T17:19:17.843Z,24.00
2018-08-11T17:21:46.964Z,23.90
2018-08-11T17:24:15.386Z,23.80
2018-08-11T17:26:43.811Z,23.80
2018-08-11T17:29:12.380Z,23.70
2018-08-11T17:31:40.875Z,23.40
2018-08-11T17:34:09.364Z,23.70
2018-08-11T17:36:37.765Z,23.60
2018-08-11T17:39:08.478Z,23.50
2018-08-11T17:41:37.046Z,23.50
2018-08-11T17:44:05.505Z,23.40
2018-08-11T17:46:33.906Z,22.70
2018-08-11T17:49:02.371Z,23.30
2018-08-11T17:51:30.989Z,23.30
2018-08-11T17:53:59.435Z,23.30
2018-08-11T17:56:28.014Z,23.20
2018-08-11T17:58:56.471Z,23.10
2018-08-11T18:01:25.018Z,23.10
2018-08-11T18:03:53.689Z,23.00
2018-08-11T18:06:22.103Z,22.90
2018-08-11T18:08:50.525Z,22.80
2018-08-11T18:11:19.011Z,22.70
2018-08-11T18:13:47.492Z,22.60
2018-08-11T18:16:15.900Z,22.60
2018-08-11T18:18:44.338Z,22.40
2018-08-11T18:21:12.738Z,22.40
2018-08-11T18:23:41.180Z,22.30
2018-08-11T18:26:09.746Z,22.10
2018-08-11T18:28:38.188Z,22.10
2018-08-11T18:31:06.633Z,22.00
2018-08-11T18:33:35.062Z,21.90
2018-08-11T18:36:03.471Z,21.80
2018-08-11T18:38:31.994Z,21.70
2018-08-11T18:41:00.379Z,21.70
2018-08-11T18:43:28.877Z,21.60
2018-08-11T18:45:57.558Z,21.60
2018-08-11T18:48:25.994Z,21.50
2018-08-11T18:50:54.386Z,21.50
2018-08-11T18:53:22.909Z,21.40
2018-08-11T18:55:51.356Z,21.40
2018-08-11T18:58:19.767Z,21.30
2018-08-11T19:00:48.205Z,21.30
2018-08-11T19:03:16.637Z,21.20
2018-08-11T19:05:45.130Z,21.20
2018-08-11T19:08:13.916Z,21.10
2018-08-11T19:10:42.346Z,21.20
2018-08-11T19:13:10.996Z,21.20
2018-08-11T19:15:39.498Z,21.30
2018-08-11T19:18:08.762Z,21.30
2018-08-11T19:20:37.192Z,21.20
2018-08-11T19:23:05.739Z,21.30
2018-08-11T19:25:34.228Z,21.30
2018-08-11T19:28:02.859Z,21.30
2018-08-11T19:30:31.299Z,21.30
2018-08-11T19:32:59.727Z,21.30
2018-08-11T19:35:28.343Z,21.30
2018-08-11T19:37:56.850Z,21.30
2018-08-11T19:40:25.382Z,21.20
2018-08-11T19:42:53.822Z,21.20
2018-08-11T19:45:22.238Z,21.20
2018-08-11T19:47:50.752Z,21.10
2018-08-11T19:50:19.200Z,21.00
2018-08-11T19:52:47.639Z,20.90
2018-08-11T19:55:16.076Z,20.90
2018-08-11T19:57:44.639Z,20.80
2018-08-11T20:00:14.420Z,20.80
2018-08-11T20:02:43.189Z,20.80
2018-08-11T20:05:12.167Z,20.80
2018-08-11T20:07:41.085Z,20.70
2018-08-11T20:10:09.525Z,20.70
2018-08-11T20:12:38.527Z,20.60
2018-08-11T20:15:08.307Z,20.60
2018-08-11T20:17:36.750Z,20.60
2018-08-11T20:20:05.753Z,20.50
2018-08-11T20:22:34.170Z,20.40
2018-08-11T20:25:02.618Z,20.30
2018-08-11T20:27:31.226Z,20.30
2018-08-11T20:29:59.688Z,20.20
2018-08-11T20:32:28.075Z,20.10
2018-08-11T20:34:56.542Z,20.10
2018-08-11T20:37:24.950Z,20.10
2018-08-11T20:39:53.439Z,20.00
2018-08-11T20:42:21.843Z,20.00
2018-08-11T20:44:50.273Z,20.00
2018-08-11T20:47:18.698Z,19.90
2018-08-11T20:49:47.351Z,19.90
2018-08-11T20:52:15.819Z,19.90
2018-08-11T20:54:44.219Z,19.90
2018-08-11T20:57:12.714Z,19.90
2018-08-11T20:59:41.146Z,19.90
2018-08-11T21:02:09.620Z,19.80
2018-08-11T21:04:39.058Z,19.80
2018-08-11T21:07:07.568Z,19.80
2018-08-11T21:09:36.002Z,19.80
2018-08-11T21:12:04.480Z,19.80
2018-08-11T21:14:32.979Z,19.80
2018-08-11T21:17:01.532Z,19.70
2018-08-11T21:19:29.947Z,19.70
2018-08-11T21:21:58.431Z,19.60
2018-08-11T21:24:26.854Z,19.60
2018-08-11T21:26:55.287Z,19.50
2018-08-11T21:29:23.806Z,19.50
2018-08-11T21:31:53.150Z,19.50
2018-08-11T21:34:21.584Z,19.40
2018-08-11T21:36:50.009Z,19.40
2018-08-11T21:39:18.452Z,19.40
2018-08-11T21:41:46.879Z,19.40
2018-08-11T21:44:15.323Z,19.40
2018-08-11T21:46:43.779Z,19.30
2018-08-11T21:49:12.289Z,19.30
2018-08-11T21:51:40.871Z,19.20
2018-08-11T21:54:09.538Z,19.20
2018-08-11T21:56:38.184Z,19.20
2018-08-11T21:59:07.042Z,19.20
2018-08-11T22:01:35.446Z,19.20
2018-08-11T22:04:04.636Z,19.20
2018-08-11T22:06:33.082Z,19.20
2018-08-11T22:09:01.530Z,19.10
2018-08-11T22:11:30.128Z,19.10
2018-08-11T22:13:58.626Z,19.10
2018-08-11T22:16:27.096Z,19.10
2018-08-11T22:18:55.562Z,19.10
2018-08-11T22:21:24.201Z,19.10
2018-08-11T22:23:52.703Z,19.10
2018-08-11T22:26:21.230Z,19.10
2018-08-11T22:28:49.833Z,19.00
2018-08-11T22:31:18.406Z,19.00
2018-08-11T22:33:46.895Z,19.00
2018-08-11T22:36:15.462Z,19.00
2018-08-11T22:38:44.760Z,19.00
2018-08-11T22:41:13.392Z,18.90
2018-08-11T22:43:41.852Z,18.90
2018-08-11T22:46:10.388Z,18.90
2018-08-11T22:48:38.886Z,18.90
2018-08-11T22:51:07.429Z,18.80
2018-08-11T22:53:35.915Z,18.70
2018-08-11T22:56:04.379Z,18.70
2018-08-11T22:58:32.877Z,18.60
2018-08-11T23:01:01.323Z,18.60
2018-08-11T23:03:29.869Z,18.70
2018-08-11T23:05:58.367Z,18.70
2018-08-11T23:08:27.159Z,18.60
2018-08-11T23:10:55.844Z,18.60
2018-08-11T23:13:24.274Z,18.60
2018-08-11T23:15:52.870Z,18.60
2018-08-11T23:18:21.364Z,18.60
2018-08-11T23:20:49.856Z,18.50
2018-08-11T23:23:18.342Z,18.40
2018-08-11T23:25:46.882Z,18.40
2018-08-11T23:28:15.313Z,18.30
2018-08-11T23:30:43.971Z,18.30
2018-08-11T23:33:12.449Z,18.30
2018-08-11T23:35:41.127Z,18.20
2018-08-11T23:38:09.680Z,18.10
2018-08-11T23:40:38.265Z,18.00
2018-08-11T23:43:06.867Z,18.00
2018-08-11T23:45:35.295Z,18.00
2018-08-11T23:48:03.848Z,18.00
2018-08-11T23:50:32.422Z,18.00
2018-08-11T23:53:00.910Z,18.00
2018-08-11T23:55:29.506Z,18.00
2018-08-11T23:57:57.946Z,18.00
